createdAt,value
2024-04-18T00:02:15.703Z,7.90
2024-04-18T00:07:08.332Z,7.50
2024-04-18T00:12:01.220Z,6.10
2024-04-18T00:17:10.990Z,5.90
2024-04-18T00:22:04.527Z,8.30
2024-04-18T00:26:57.787Z,6.50
2024-04-18T00:31:59.056Z,6.40
2024-04-18T00:37:01.063Z,6.70
2024-04-18T00:42:13.599Z,8.00
2024-04-18T00:47:26.360Z,7.50
2024-04-18T00:52:33.994Z,8.40
2024-04-18T00:57:27.046Z,7.50
2024-04-18T01:02:26.108Z,6.80
2024-04-18T01:07:38.628Z,9.00
2024-04-18T01:18:08.856Z,6.30
2024-04-18T01:23:01.548Z,5.00
2024-04-18T01:28:23.416Z,8.30
2024-04-18T01:33:26.566Z,6.80
2024-04-18T01:38:19.322Z,10.10
2024-04-18T01:43:11.911Z,6.10
2024-04-18T01:48:23.296Z,7.80
2024-04-18T01:53:34.805Z,7.10
2024-04-18T01:58:27.376Z,7.80
2024-04-18T02:03:20.134Z,10.20
2024-04-18T02:08:12.785Z,8.80
2024-04-18T02:13:10.610Z,9.70
2024-04-18T02:18:12.227Z,8.30
2024-04-18T02:23:07.410Z,7.80
2024-04-18T02:28:15.297Z,8.70
2024-04-18T02:33:07.923Z,7.40
2024-04-18T02:38:10.449Z,12.90
2024-04-18T02:43:03.991Z,9.60
2024-04-18T02:47:59.446Z,10.90
2024-04-18T02:53:07.455Z,10.40
2024-04-18T02:58:00.054Z,8.10
2024-04-18T03:02:52.794Z,8.10
2024-04-18T03:07:46.072Z,9.30
2024-04-18T03:12:38.740Z,14.20
2024-04-18T03:18:06.663Z,10.80
2024-04-18T03:23:00.774Z,8.70
2024-04-18T03:27:53.488Z,8.60
2024-04-18T03:32:46.164Z,10.50
2024-04-18T03:37:39.030Z,8.10
2024-04-18T03:42:50.191Z,9.00
2024-04-18T03:47:42.883Z,8.90
2024-04-18T03:52:35.541Z,9.60
2024-04-18T03:57:32.779Z,8.40
2024-04-18T04:02:25.417Z,10.80
2024-04-18T04:07:19.183Z,7.90
2024-04-18T04:12:11.738Z,10.00
2024-04-18T04:17:24.016Z,7.00
2024-04-18T04:22:33.480Z,8.30
2024-04-18T04:27:45.385Z,8.00
2024-04-18T04:32:38.158Z,8.50
2024-04-18T04:37:50.750Z,15.20
2024-04-18T04:42:43.340Z,14.60
2024-04-18T04:47:36.019Z,11.50
2024-04-18T04:52:48.609Z,10.40
2024-04-18T04:57:44.242Z,8.50
2024-04-18T05:02:48.748Z,8.80
2024-04-18T05:07:44.653Z,9.00
2024-04-18T05:13:17.423Z,7.90
2024-04-18T05:18:10.796Z,11.60
2024-04-18T05:23:04.497Z,10.30
2024-04-18T05:28:05.504Z,9.10
2024-04-18T05:33:00.806Z,8.60
2024-04-18T05:37:53.554Z,7.50
2024-04-18T05:42:46.070Z,9.60
2024-04-18T05:47:38.526Z,11.90
2024-04-18T05:52:30.970Z,8.90
2024-04-18T05:57:43.581Z,8.70
2024-04-18T06:02:56.000Z,10.80
2024-04-18T06:07:48.435Z,8.50
2024-04-18T06:12:40.900Z,10.30
2024-04-18T06:17:33.299Z,7.50
2024-04-18T06:22:28.411Z,7.60
2024-04-18T06:27:40.843Z,8.30
2024-04-18T06:32:33.422Z,6.20
2024-04-18T06:37:27.027Z,5.30
2024-04-18T06:42:19.570Z,7.30
2024-04-18T06:47:12.045Z,5.90
2024-04-18T06:52:04.685Z,4.60
2024-04-18T06:56:57.108Z,6.30
2024-04-18T07:01:50.025Z,4.40
2024-04-18T07:06:42.598Z,4.60
2024-04-18T07:11:35.179Z,4.70
2024-04-18T07:16:27.641Z,6.50
2024-04-18T07:21:20.109Z,4.80
2024-04-18T07:26:12.647Z,5.10
2024-04-18T07:31:05.170Z,4.50
2024-04-18T07:35:59.815Z,6.70
2024-04-18T07:40:52.314Z,6.90
2024-04-18T07:45:44.878Z,4.80
2024-04-18T07:50:37.352Z,3.20
2024-04-18T07:55:31.336Z,3.10
2024-04-18T08:00:24.769Z,4.20
2024-04-18T08:05:20.558Z,2.50
2024-04-18T08:10:18.144Z,4.90
2024-04-18T08:15:17.328Z,3.00
2024-04-18T08:20:12.726Z,6.10
2024-04-18T08:25:07.551Z,5.00
2024-04-18T08:30:00.028Z,3.70
2024-04-18T08:34:52.554Z,4.20
2024-04-18T08:39:45.112Z,3.60
2024-04-18T08:44:40.320Z,5.20
2024-04-18T08:49:35.162Z,3.30
2024-04-18T08:54:28.711Z,3.70
2024-04-18T08:59:23.173Z,3.70
2024-04-18T09:04:15.644Z,3.10
2024-04-18T09:09:15.503Z,4.20
2024-04-18T09:14:08.126Z,2.70
2024-04-18T09:19:00.939Z,3.80
2024-04-18T09:23:53.415Z,3.70
2024-04-18T09:28:46.474Z,3.80
2024-04-18T09:33:39.092Z,4.80
2024-04-18T09:38:33.394Z,3.80
2024-04-18T09:43:43.341Z,3.20
2024-04-18T09:48:36.706Z,3.50
2024-04-18T09:53:33.115Z,2.80
2024-04-18T09:58:28.429Z,5.60
2024-04-18T10:03:21.807Z,2.90
2024-04-18T10:08:14.693Z,3.70
2024-04-18T10:13:07.693Z,3.40
2024-04-18T10:18:00.428Z,2.70
2024-04-18T10:23:02.793Z,2.80
2024-04-18T10:27:55.276Z,2.90
2024-04-18T10:32:49.447Z,4.60
2024-04-18T10:37:51.017Z,4.50
2024-04-18T10:42:43.601Z,4.60
2024-04-18T10:47:36.822Z,3.60
2024-04-18T10:52:29.623Z,3.90
2024-04-18T10:57:22.722Z,3.60
2024-04-18T11:02:17.393Z,2.70
2024-04-18T11:07:10.040Z,2.70
2024-04-18T11:12:04.139Z,2.30
2024-04-18T11:17:02.346Z,1.80
2024-04-18T11:21:55.110Z,1.60
2024-04-18T11:26:51.172Z,3.80
2024-04-18T11:31:44.022Z,2.20
2024-04-18T11:36:39.922Z,2.40
2024-04-18T11:41:33.140Z,1.90
2024-04-18T11:46:26.061Z,3.10
2024-04-18T11:51:18.773Z,2.60
2024-04-18T11:56:11.838Z,3.90
2024-04-18T12:01:04.967Z,1.50
2024-04-18T12:06:06.698Z,1.50
2024-04-18T12:11:15.796Z,2.30
2024-04-18T12:16:08.439Z,1.70
2024-04-18T12:21:01.112Z,1.70
2024-04-18T12:26:03.021Z,1.80
2024-04-18T12:31:12.464Z,2.20
2024-04-18T12:36:18.362Z,2.10
2024-04-18T12:41:10.975Z,2.10
2024-04-18T12:46:11.458Z,2.20
2024-04-18T12:51:16.684Z,2.20
2024-04-18T12:56:09.535Z,2.40
2024-04-18T13:01:02.236Z,2.30
2024-04-18T13:06:03.657Z,1.70
2024-04-18T13:11:14.508Z,2.20
2024-04-18T13:16:07.338Z,2.00
2024-04-18T13:20:59.948Z,2.60
2024-04-18T13:25:53.903Z,2.00
2024-04-18T13:30:46.978Z,2.10
2024-04-18T13:35:59.677Z,2.30
2024-04-18T13:40:52.209Z,2.00
2024-04-18T13:45:44.845Z,2.30
2024-04-18T13:50:37.462Z,3.00
2024-04-18T13:55:30.096Z,3.30
2024-04-18T14:00:22.860Z,2.30
2024-04-18T14:05:34.372Z,1.40
2024-04-18T14:10:26.916Z,1.30
2024-04-18T14:16:11.889Z,2.40
2024-04-18T14:21:18.002Z,1.60
2024-04-18T14:26:11.039Z,1.50
2024-04-18T14:31:12.576Z,1.40
2024-04-18T14:36:14.301Z,1.80
2024-04-18T14:41:11.828Z,1.20
2024-04-18T14:46:05.546Z,3.20
2024-04-18T14:51:10.906Z,1.70
2024-04-18T14:56:12.764Z,2.50
2024-04-18T15:01:24.667Z,2.90
2024-04-18T15:06:17.770Z,3.90
2024-04-18T15:11:31.799Z,1.20
2024-04-18T15:16:27.376Z,1.70
2024-04-18T15:21:22.020Z,1.90
2024-04-18T15:26:33.291Z,1.80
2024-04-18T15:31:25.895Z,1.30
2024-04-18T15:36:24.373Z,2.50
2024-04-18T15:41:17.070Z,2.40
2024-04-18T15:46:09.619Z,2.40
2024-04-18T15:51:02.272Z,3.00
2024-04-18T15:55:54.841Z,3.60
2024-04-18T16:00:53.147Z,4.60
2024-04-18T16:05:59.532Z,2.10
2024-04-18T16:11:08.528Z,2.60
2024-04-18T16:16:19.851Z,2.60
2024-04-18T16:21:13.154Z,2.60
2024-04-18T16:26:06.369Z,2.50
2024-04-18T16:30:59.679Z,2.60
2024-04-18T16:35:52.275Z,2.20
2024-04-18T16:40:44.938Z,2.10
2024-04-18T16:45:54.888Z,5.10
2024-04-18T16:50:47.573Z,2.70
2024-04-18T16:55:40.191Z,2.30
2024-04-18T17:00:41.867Z,5.40
2024-04-18T17:05:37.477Z,3.90
2024-04-18T17:10:30.152Z,4.00
2024-04-18T17:15:49.199Z,4.30
2024-04-18T17:20:43.496Z,3.20
2024-04-18T17:25:40.620Z,4.10
2024-04-18T17:30:33.370Z,4.20
2024-04-18T17:35:25.981Z,5.30
2024-04-18T17:40:36.494Z,4.50
2024-04-18T17:45:29.099Z,4.40
2024-04-18T17:50:47.939Z,5.00
2024-04-18T17:55:40.505Z,4.80
2024-04-18T18:00:33.127Z,6.10
2024-04-18T18:05:25.898Z,4.40
2024-04-18T18:10:38.452Z,6.30
2024-04-18T18:15:37.073Z,4.10
2024-04-18T18:20:29.736Z,5.20
2024-04-18T18:25:22.421Z,9.80
2024-04-18T18:30:15.868Z,9.40
2024-04-18T18:35:09.442Z,6.90
2024-04-18T18:40:02.133Z,4.90
2024-04-18T18:44:54.719Z,4.80
2024-04-18T18:49:47.422Z,6.50
2024-04-18T18:54:40.312Z,5.50
2024-04-18T18:59:34.104Z,4.90
2024-04-18T19:04:29.624Z,5.00
2024-04-18T19:09:23.654Z,5.90
2024-04-18T19:14:16.536Z,7.60
2024-04-18T19:19:28.303Z,8.70
2024-04-18T19:24:21.132Z,7.00
2024-04-18T19:29:31.379Z,6.40
2024-04-18T19:34:33.508Z,5.60
2024-04-18T19:39:26.500Z,7.20
2024-04-18T19:44:25.434Z,10.20
2024-04-18T19:49:18.468Z,8.40
2024-04-18T19:54:20.914Z,7.30
2024-04-18T19:59:13.730Z,8.50
2024-04-18T20:04:06.426Z,7.60
2024-04-18T20:09:01.120Z,8.10
2024-04-18T20:13:53.870Z,11.10
2024-04-18T20:18:47.764Z,5.80
2024-04-18T20:23:40.592Z,8.90
2024-04-18T20:28:34.288Z,6.40
2024-04-18T20:33:26.964Z,7.60
2024-04-18T20:38:19.593Z,5.80
2024-04-18T20:43:12.386Z,9.00
2024-04-18T20:48:05.862Z,6.20
2024-04-18T20:52:58.532Z,6.10
2024-04-18T20:57:51.406Z,5.60
2024-04-18T21:02:44.574Z,7.00
2024-04-18T21:07:37.205Z,6.40
2024-04-18T21:12:29.764Z,11.80
2024-04-18T21:17:22.251Z,6.00
2024-04-18T21:22:14.922Z,7.20
2024-04-18T21:27:07.597Z,5.50
2024-04-18T21:32:00.133Z,6.50
2024-04-18T21:36:52.633Z,4.50
2024-04-18T21:41:46.607Z,5.70
2024-04-18T21:46:39.338Z,5.70
2024-04-18T21:51:31.892Z,5.40
2024-04-18T21:56:24.425Z,5.10
2024-04-18T22:01:17.107Z,4.20
2024-04-18T22:06:09.670Z,6.10
2024-04-18T22:11:02.269Z,6.90
2024-04-18T22:16:06.160Z,10.90
2024-04-18T22:20:58.652Z,6.10
2024-04-18T22:25:51.269Z,5.90
2024-04-18T22:30:43.829Z,6.50
2024-04-18T22:35:36.406Z,5.00
2024-04-18T22:40:28.930Z,5.30
2024-04-18T22:45:21.561Z,5.00
2024-04-18T22:50:14.054Z,5.00
2024-04-18T22:55:06.625Z,4.00
2024-04-18T22:59:59.077Z,4.60
2024-04-18T23:04:51.560Z,4.40
2024-04-18T23:09:44.049Z,4.70
2024-04-18T23:14:36.555Z,5.70
2024-04-18T23:19:29.078Z,4.10
2024-04-18T23:24:21.599Z,5.40
2024-04-18T23:29:15.029Z,6.50
2024-04-18T23:34:07.606Z,6.00
2024-04-18T23:39:00.127Z,7.60
2024-04-18T23:43:52.647Z,6.50
2024-04-18T23:48:45.307Z,6.10
2024-04-18T23:53:38.049Z,6.20
2024-04-18T23:58:31.628Z,8.00
